Αρχική σελίδα
METAR-TAF:

METAR-TAF

Αεροδρόμια :

Νιαμέυ, Νίγηρας

γεωγραφικό πλάτος: 13-29N, γεωγραφικό μήκος: 002-10E, υψόμετρο: 223 μ

Παρών καιρός

Η αναφορά έγινε 25 λεπτά πριν, στις 13:00 UTC
Άνεμος 6 kt από Α/BA, μεταβλητός μεταξύ Β/BA και ΝA
Θερμοκρασία 35°C
Υγρασία 7%
Πίεση 1011 hPa
Ορατότητα: 4500 μ
εκτεταμένη σκόνη

METAR: DRRN 101300Z 07006KT 020V130 4500 DU NSC 35/M06 Q1011 NOSIG

Χρόνος: 14:25 (13:25 UTC)

Πρόγνωση Καιρού

Η αναφορά έγινε 2 ώρες και 25 λεπτά πριν, στις 11:00 UTC
Η πρόγνωση ισχύει από τις 10 στις 12 UTC έως τις 11 στις 18 UTC
Άνεμος 8 kt από Α
Ορατότητα: 3500 μ
εκτεταμένη σκόνη
Καθιστάμενος
από 10 στις 20 UTC έως τις 10 στις 22 UTC
Ορατότητα: 6000 μ
Προσωρινά
από 11 στις 06 UTC έως τις 11 στις 10 UTC
Ορατότητα: 3500 μ
εκτεταμένη σκόνη

TAF: DRRN 101100Z 1012/1118 08008KT 3500 DU NSC BECMG 1020/1022 6000 NSW TEMPO 1106/1110 3500 DU

Μετεωρολογικές αναφορές και προγνώσεις για περισσότερα από 4000 αεροδρόμια (δελτία METAR και TAF).

Οι διαθέσιμοι σταθμοί απεικονίζονται στο χάρτη με κίτρινες και κόκκινες κουκκίδες.

Μετακινήστε το ποντίκι πάνω από τις κουκκίδες για να δείτε το όνομα του σταθμού.

Στη συνέχεια, κάντε κλικ για να δείτε τις μετεωρολογικές αναφορές και τις προγνώσεις καιρού.

Για να αλλάξετε το χάρτη: κάντε κλικ στα πράσινα κουμπιά με τον μαύρο σταυρό για να ζουμάρετε, στο πράσινο κουμπί με την παύλα για να αφαιρέσετε το ζουμ ή στα πράσινα βέλη για να αντιπαραβάλλετε χάρτες.


METAR-TAF: